createdAt,value
2023-02-03T00:00:35.712Z,0
2023-02-03T00:05:35.819Z,0
2023-02-03T00:10:36.151Z,0
2023-02-03T00:15:35.481Z,0
2023-02-03T00:20:35.879Z,0
2023-02-03T00:25:36.063Z,0
2023-02-03T00:30:35.393Z,0
2023-02-03T00:35:35.423Z,0
2023-02-03T00:40:35.685Z,0
2023-02-03T00:45:35.957Z,0
2023-02-03T00:50:35.505Z,0
2023-02-03T00:55:35.587Z,0
2023-02-03T01:00:35.964Z,0
2023-02-03T01:05:35.523Z,0
2023-02-03T01:10:35.745Z,0
2023-02-03T01:15:35.191Z,0
2023-02-03T01:20:36.120Z,0
2023-02-03T01:25:35.284Z,0
2023-02-03T01:30:35.538Z,0
2023-02-03T01:35:35.556Z,0
2023-02-03T01:40:35.518Z,0
2023-02-03T01:45:35.549Z,0
2023-02-03T01:50:36.048Z,0
2023-02-03T01:55:35.207Z,0
2023-02-03T02:00:35.647Z,0
2023-02-03T02:05:36.067Z,0
2023-02-03T02:10:36.183Z,0
2023-02-03T02:15:35.682Z,0
2023-02-03T02:20:35.755Z,0
2023-02-03T02:25:35.859Z,0
2023-02-03T02:30:35.903Z,0
2023-02-03T02:35:35.493Z,0
2023-02-03T02:40:36.127Z,0
2023-02-03T02:45:35.833Z,0
2023-02-03T02:50:35.937Z,0
2023-02-03T02:55:36.139Z,0
2023-02-03T03:00:35.313Z,0
2023-02-03T03:05:35.627Z,0
2023-02-03T03:10:35.498Z,0
2023-02-03T03:15:36.043Z,0
2023-02-03T03:20:35.691Z,0
2023-02-03T03:25:35.927Z,0
2023-02-03T03:30:36.095Z,0
2023-02-03T03:35:35.834Z,0
2023-02-03T03:40:36.227Z,0
2023-02-03T03:45:35.771Z,0
2023-02-03T03:50:35.757Z,0
2023-02-03T03:55:35.460Z,0
2023-02-03T04:00:36.199Z,0
2023-02-03T04:05:35.448Z,0
2023-02-03T04:10:35.408Z,0
2023-02-03T04:15:35.592Z,0
2023-02-03T04:20:35.755Z,0
2023-02-03T04:25:35.871Z,0
2023-02-03T04:30:35.880Z,0
2023-02-03T04:35:36.060Z,0
2023-02-03T04:40:36.174Z,0
2023-02-03T04:45:36.424Z,0
2023-02-03T04:50:35.598Z,0
2023-02-03T04:55:35.594Z,0
2023-02-03T05:00:35.689Z,0
2023-02-03T05:05:35.685Z,0
2023-02-03T05:10:35.681Z,0
2023-02-03T05:15:35.574Z,0
2023-02-03T05:20:35.662Z,0
2023-02-03T05:25:35.727Z,0
2023-02-03T05:30:35.727Z,0
2023-02-03T05:35:35.682Z,0
2023-02-03T05:40:35.747Z,0
2023-02-03T05:45:35.770Z,0
2023-02-03T05:50:38.929Z,0
2023-02-03T05:55:35.991Z,0
2023-02-03T06:00:35.703Z,0
2023-02-03T06:05:35.676Z,0
2023-02-03T06:10:36.013Z,0
2023-02-03T06:15:35.939Z,0
2023-02-03T06:20:36.189Z,0
2023-02-03T06:25:36.202Z,0
2023-02-03T06:30:36.448Z,0
2023-02-03T06:35:35.494Z,0
2023-02-03T06:40:35.646Z,0
2023-02-03T06:45:35.707Z,0
2023-02-03T06:50:35.902Z,0
2023-02-03T06:55:35.843Z,0
2023-02-03T07:00:35.825Z,0
2023-02-03T07:05:35.783Z,0
2023-02-03T07:10:35.836Z,0
2023-02-03T07:15:36.121Z,0
2023-02-03T07:20:36.104Z,0
2023-02-03T07:25:36.263Z,0
2023-02-03T07:30:35.611Z,0
2023-02-03T07:35:35.567Z,0
2023-02-03T07:40:35.491Z,0
2023-02-03T07:45:35.541Z,0
2023-02-03T07:50:35.562Z,0
2023-02-03T07:55:35.483Z,1.4
2023-02-03T08:00:35.595Z,1.4
2023-02-03T08:05:35.983Z,2
2023-02-03T08:10:35.989Z,2
2023-02-03T08:15:36.026Z,11
2023-02-03T08:20:35.990Z,11
2023-02-03T08:25:36.136Z,19.8
2023-02-03T08:30:35.770Z,19.8
2023-02-03T08:35:35.694Z,20
2023-02-03T08:40:36.481Z,20
2023-02-03T08:45:35.702Z,28.8
2023-02-03T08:50:35.956Z,28.8
2023-02-03T08:55:36.036Z,27.2
2023-02-03T09:00:35.841Z,27.2
2023-02-03T09:06:35.184Z,48.6
2023-02-03T09:10:35.933Z,48.6
2023-02-03T09:15:36.068Z,63.2
2023-02-03T09:20:36.335Z,63.2
2023-02-03T09:25:36.547Z,58.5
2023-02-03T09:30:36.251Z,58.5
2023-02-03T09:35:35.783Z,71.6
2023-02-03T09:40:36.305Z,71.6
2023-02-03T09:45:36.052Z,86
2023-02-03T09:50:36.358Z,86
2023-02-03T09:55:36.499Z,100
2023-02-03T10:00:36.211Z,100
2023-02-03T10:05:35.768Z,118
2023-02-03T10:10:35.997Z,118
2023-02-03T10:15:36.088Z,114
2023-02-03T10:20:36.205Z,114
2023-02-03T10:25:36.301Z,101.2
2023-02-03T10:30:35.960Z,101.2
2023-02-03T10:35:36.071Z,73.8
2023-02-03T10:40:36.515Z,73.8
2023-02-03T10:45:36.387Z,100.5
2023-02-03T10:50:35.673Z,100.5
2023-02-03T10:55:35.804Z,154.4
2023-02-03T11:00:35.842Z,154.4
2023-02-03T11:05:35.844Z,137.5
2023-02-03T11:10:36.396Z,137.5
2023-02-03T11:15:36.528Z,129.8
2023-02-03T11:20:35.741Z,129.8
2023-02-03T11:25:35.916Z,103
2023-02-03T11:30:36.370Z,103
2023-02-03T11:35:36.373Z,99
2023-02-03T11:40:36.525Z,99
2023-02-03T11:45:36.534Z,105.2
2023-02-03T11:50:35.659Z,105.2
2023-02-03T11:55:35.715Z,158.2
2023-02-03T12:00:36.428Z,158.2
2023-02-03T12:05:35.811Z,188.8
2023-02-03T12:10:35.987Z,188.8
2023-02-03T12:15:35.985Z,156.5
2023-02-03T12:20:36.034Z,156.5
2023-02-03T12:25:36.061Z,115.8
2023-02-03T12:30:36.331Z,115.8
2023-02-03T12:35:36.417Z,74.6
2023-02-03T12:40:36.487Z,74.6
2023-02-03T12:45:36.711Z,69.5
2023-02-03T12:50:35.924Z,69.5
2023-02-03T12:55:35.932Z,83.8
2023-02-03T13:00:36.848Z,83.8
2023-02-03T13:05:35.835Z,55
2023-02-03T13:10:36.093Z,55
2023-02-03T13:15:36.097Z,45
2023-02-03T13:20:36.303Z,45
2023-02-03T13:25:36.382Z,44.8
2023-02-03T13:30:36.959Z,44.8
2023-02-03T13:35:36.148Z,43.5
2023-02-03T13:40:36.421Z,43.5
2023-02-03T13:45:36.552Z,58.4
2023-02-03T13:50:36.637Z,58.4
2023-02-03T13:55:36.653Z,44.8
2023-02-03T14:00:36.595Z,44.8
2023-02-03T14:05:35.676Z,39
2023-02-03T14:10:35.715Z,39
2023-02-03T14:15:35.749Z,34.6
2023-02-03T14:20:36.436Z,34.6
2023-02-03T14:25:36.508Z,20.5
2023-02-03T14:30:36.800Z,20.5
2023-02-03T14:35:35.837Z,25.5
2023-02-03T14:40:35.855Z,25.5
2023-02-03T14:45:35.846Z,19.5
2023-02-03T14:50:35.929Z,19.5
2023-02-03T14:55:36.205Z,22.2
2023-02-03T15:00:36.274Z,22.2
2023-02-03T15:05:36.479Z,24.2
2023-02-03T15:10:36.776Z,24.2
2023-02-03T15:15:36.705Z,22
2023-02-03T15:20:36.408Z,22
2023-02-03T15:25:36.823Z,15.2
2023-02-03T15:30:36.181Z,15.2
2023-02-03T15:35:36.438Z,13.2
2023-02-03T15:40:36.583Z,13.2
2023-02-03T15:45:36.377Z,2.5
2023-02-03T15:50:35.970Z,2.5
2023-02-03T15:55:36.252Z,0
2023-02-03T16:00:36.108Z,0
2023-02-03T16:05:36.139Z,0
2023-02-03T16:10:35.833Z,0
2023-02-03T16:15:36.154Z,0
2023-02-03T16:20:36.357Z,0
2023-02-03T16:25:36.535Z,0
2023-02-03T16:30:36.776Z,0
2023-02-03T16:35:36.682Z,0
2023-02-03T16:40:36.138Z,0
2023-02-03T16:45:37.327Z,0
2023-02-03T16:50:39.988Z,0
2023-02-03T16:55:36.249Z,0
2023-02-03T17:00:36.522Z,0
2023-02-03T17:05:36.656Z,0
2023-02-03T17:10:36.781Z,0
2023-02-03T17:15:36.724Z,0
2023-02-03T17:20:36.881Z,0
2023-02-03T17:25:36.086Z,0
2023-02-03T17:30:36.695Z,0
2023-02-03T17:35:36.833Z,0
2023-02-03T17:55:36.333Z,0
2023-02-03T18:00:35.808Z,0
2023-02-03T18:05:35.806Z,0
2023-02-03T18:10:35.850Z,0
2023-02-03T18:15:35.879Z,0
2023-02-03T18:20:36.004Z,0
2023-02-03T18:25:36.330Z,0
2023-02-03T18:30:36.709Z,0
2023-02-03T18:35:35.812Z,0
2023-02-03T18:40:36.754Z,0
2023-02-03T18:45:36.729Z,0
2023-02-03T18:50:36.813Z,0
2023-02-03T18:55:36.808Z,0
2023-02-03T19:00:35.896Z,0
2023-02-03T19:05:35.994Z,0
2023-02-03T19:10:36.220Z,0
2023-02-03T19:15:36.311Z,0
2023-02-03T19:20:36.473Z,0
2023-02-03T19:25:36.143Z,0
2023-02-03T19:30:36.295Z,0
2023-02-03T19:35:36.277Z,0
2023-02-03T19:40:36.413Z,0
2023-02-03T19:45:36.591Z,0
2023-02-03T19:50:36.556Z,0
2023-02-03T19:55:36.541Z,0
2023-02-03T20:00:35.930Z,0
2023-02-03T20:05:36.073Z,0
2023-02-03T20:10:36.396Z,0
2023-02-03T20:15:36.520Z,0
2023-02-03T20:20:36.642Z,0
2023-02-03T20:25:36.552Z,0
2023-02-03T20:30:37.186Z,0
2023-02-03T20:35:36.627Z,0
2023-02-03T20:40:36.604Z,0
2023-02-03T20:45:36.746Z,0
2023-02-03T20:50:43.067Z,0
2023-02-03T20:55:36.391Z,0
2023-02-03T21:00:36.572Z,0
2023-02-03T21:05:36.536Z,0
2023-02-03T21:10:36.936Z,0
2023-02-03T21:15:36.168Z,0
2023-02-03T21:20:36.378Z,0
2023-02-03T21:25:36.371Z,0
2023-02-03T21:30:36.303Z,0
2023-02-03T21:35:36.404Z,0
2023-02-03T21:40:36.539Z,0
2023-02-03T21:45:36.565Z,0
2023-02-03T21:50:36.841Z,0
2023-02-03T21:55:36.917Z,0
2023-02-03T22:00:36.185Z,0
2023-02-03T22:05:36.193Z,0
2023-02-03T22:10:36.347Z,0
2023-02-03T22:15:36.302Z,0
2023-02-03T22:20:36.439Z,0
2023-02-03T22:25:36.687Z,0
2023-02-03T22:30:36.780Z,0
2023-02-03T22:35:36.900Z,0
2023-02-03T22:40:36.058Z,0
2023-02-03T22:45:36.058Z,0
2023-02-03T22:50:37.169Z,0
2023-02-03T22:55:36.223Z,0
2023-02-03T23:00:36.308Z,0
2023-02-03T23:05:36.340Z,0
2023-02-03T23:10:36.547Z,0
2023-02-03T23:15:36.533Z,0
2023-02-03T23:20:36.903Z,0
2023-02-03T23:25:36.037Z,0
2023-02-03T23:30:36.717Z,0
2023-02-03T23:35:36.676Z,0
2023-02-03T23:40:36.782Z,0
2023-02-03T23:45:36.884Z,0
2023-02-03T23:55:36.780Z,0
